Hilliards, Pennsylvania
Current Conditions -  °F | °C
As of 4:35 PM on Wednesday 17 Dec 2014 (Local Time) from KFKL Reporting Station
Overcast Overcast  
Wind Chill: 18°   Ceiling: 2200
Heat Index: 28°   Visibility: 10mi
Dew Point: 21°   Wind: 12mph
Humidity: 74%   Direction: 280°W
Pressure: 30.03"   Gusts: 21mph
Location:  41.09°N, 79.83°W
Report Text: KFKL 172135Z AUTO 28010G18KT 10SM OVC022 M02/M06 A3003 RMK AO1
Loading
Personal Weather Stations






























Interactive Weather Map New forecast layout! Learn more

10-Day Weather Forecast

Advertisements
Track Severe Weather on mobile